»·PEaware :: N9135K KSDM-KLGB

N9135K :: KSDM-KLGB

FLIGHT INFORMATION

Flight Status: Arrived
Operator: Privately registered:
United States
More flights under this callsign
Pilot: John R. (31973)
Aircraft: CESSNA 172 SKYHAWK
(C172)
More flights by this aircraft type
Origin: KSDM Brown Mun
United States
Destination: KLGB Long Beach
United States
More flights between these airports :: More routes between these airports
Route:
File this flight plan on PilotEdge
Remarks:
Altitude:
(Current/Filed)
6,500ft
Speed:
(Current/Filed)
100kts
Departed: 21-Nov-20 05:11 PM
Arrived: 21-Nov-20 06:15 PM
Distance/Time
Traveled:
95nm/1:04
Distance/Time
To Go:
Arrived

Flight Plot

Page will automatically refresh every two minutes.

Flight plan parsing failed; only flown route is shown


Map Options




Map Legend


Flown Route
Filed Route
Departure Airport
Arrival Airport
Navaid (VOR, NDB)
Fix

Horizontal Profiles

Position Reports

Time Latitude Longitude Heading Altitude Ground
Speed
21-Nov-20 16:44 32.570632 -116.988326 290 529ft 0kts
21-Nov-20 16:45 32.570632 -116.988326 290 529ft 0kts
21-Nov-20 16:46 32.570632 -116.988326 290 529ft 0kts
21-Nov-20 16:47 32.570632 -116.988326 290 529ft 0kts
21-Nov-20 16:48 32.570632 -116.988326 290 529ft 0kts
21-Nov-20 16:49 32.570632 -116.988326 290 529ft 0kts
21-Nov-20 16:50 32.570632 -116.988326 290 529ft 0kts
21-Nov-20 16:51 32.570632 -116.988326 290 529ft 0kts
21-Nov-20 16:52 32.570632 -116.988326 290 529ft 0kts
21-Nov-20 16:53 32.570632 -116.988326 290 529ft 0kts
21-Nov-20 16:54 32.570632 -116.988326 290 529ft 0kts
21-Nov-20 16:55 32.570632 -116.988326 290 529ft 0kts
21-Nov-20 16:56 32.570632 -116.988326 290 529ft 0kts
21-Nov-20 16:57 32.570632 -116.988326 290 529ft 0kts
21-Nov-20 16:58 32.570632 -116.988326 290 529ft 0kts
21-Nov-20 16:59 32.570632 -116.988326 290 529ft 0kts
21-Nov-20 17:00 32.570632 -116.988326 290 529ft 0kts
21-Nov-20 17:01 32.570632 -116.988326 290 529ft 0kts
21-Nov-20 17:02 32.570632 -116.988326 290 529ft 0kts
21-Nov-20 17:03 32.570632 -116.988326 290 529ft 0kts
21-Nov-20 17:04 32.570944 -116.985505 97 529ft 24kts
21-Nov-20 17:05 32.570374 -116.979202 95 529ft 13kts
21-Nov-20 17:06 32.569741 -116.971746 95 529ft 28kts
21-Nov-20 17:07 32.570141 -116.968051 4 529ft 10kts
21-Nov-20 17:08 32.571212 -116.967959 3 529ft 0kts
21-Nov-20 17:09 32.571666 -116.968170 289 529ft 11kts
21-Nov-20 17:10 32.573383 -116.988171 275 885ft 71kts
21-Nov-20 17:11 32.565640 -116.983618 90 1424ft 90kts
21-Nov-20 17:12 32.568900 -116.953811 23 2017ft 100kts
21-Nov-20 17:13 32.576336 -116.979960 247 2602ft 88kts
21-Nov-20 17:14 32.571395 -117.009328 269 3237ft 94kts
21-Nov-20 17:15 32.571963 -117.040251 271 3815ft 86kts
21-Nov-20 17:16 32.572607 -117.066157 271 4320ft 72kts
21-Nov-20 17:17 32.573252 -117.092095 271 4532ft 93kts
21-Nov-20 17:18 32.587482 -117.113891 337 4838ft 91kts
21-Nov-20 17:19 32.610039 -117.125081 337 5497ft 84kts
21-Nov-20 17:20 32.630996 -117.135479 337 6134ft 80kts
21-Nov-20 17:21 32.652613 -117.146207 337 6537ft 97kts
21-Nov-20 17:22 32.679847 -117.159727 337 6501ft 109kts
21-Nov-20 17:23 32.707980 -117.173698 337 6500ft 109kts
21-Nov-20 17:24 32.736176 -117.187704 337 6500ft 109kts
21-Nov-20 17:25 32.764372 -117.201715 337 6500ft 109kts
21-Nov-20 17:26 32.792568 -117.215729 337 6500ft 109kts
21-Nov-20 17:27 32.820733 -117.229734 337 6500ft 109kts
21-Nov-20 17:28 32.848897 -117.243742 337 6500ft 109kts
21-Nov-20 17:29 32.877100 -117.257773 337 6500ft 109kts
21-Nov-20 17:30 32.905273 -117.271795 337 6500ft 109kts
21-Nov-20 17:31 32.933498 -117.285847 337 6500ft 109kts
21-Nov-20 17:32 32.961675 -117.299879 337 6500ft 109kts
21-Nov-20 17:33 32.989842 -117.313910 337 6500ft 109kts
21-Nov-20 17:34 33.018096 -117.327990 337 6500ft 109kts
21-Nov-20 17:35 33.046280 -117.342039 337 6500ft 109kts
21-Nov-20 17:36 33.074424 -117.356073 337 6500ft 109kts
21-Nov-20 17:37 33.102623 -117.370139 337 6500ft 109kts
21-Nov-20 17:38 33.130840 -117.384218 337 6500ft 109kts
21-Nov-20 17:39 33.154111 -117.404641 294 6510ft 108kts
21-Nov-20 17:40 33.170921 -117.434580 320 6501ft 109kts
21-Nov-20 17:41 33.196287 -117.454849 318 6500ft 109kts
21-Nov-20 17:42 33.218082 -117.480569 314 6499ft 110kts
21-Nov-20 17:43 33.239846 -117.507071 314 6502ft 114kts
21-Nov-20 17:44 33.262265 -117.534428 314 6500ft 115kts
21-Nov-20 17:45 33.284810 -117.561960 314 6500ft 115kts
21-Nov-20 17:46 33.307273 -117.589414 314 6500ft 115kts
21-Nov-20 17:47 33.329735 -117.616887 314 6500ft 115kts
21-Nov-20 17:48 33.352178 -117.644359 314 6500ft 115kts
21-Nov-20 17:50 33.374700 -117.671949 314 6500ft 115kts
21-Nov-20 17:51 33.397377 -117.699141 324 6498ft 115kts
21-Nov-20 17:52 33.425682 -117.717291 333 6499ft 115kts
21-Nov-20 17:53 33.454490 -117.734636 333 6500ft 115kts
21-Nov-20 17:54 33.483214 -117.751936 333 6500ft 115kts
21-Nov-20 17:55 33.511927 -117.769236 333 6500ft 115kts
21-Nov-20 17:56 33.540709 -117.786583 333 6500ft 115kts
21-Nov-20 17:57 33.570496 -117.804959 331 6186ft 128kts
21-Nov-20 17:58 33.600012 -117.824333 331 5561ft 112kts
21-Nov-20 17:59 33.626727 -117.841877 331 4954ft 108kts
21-Nov-20 18:00 33.652884 -117.859060 331 4486ft 100kts
21-Nov-20 18:01 33.675266 -117.873767 331 4496ft 87kts
21-Nov-20 18:02 33.696513 -117.887732 331 4500ft 87kts
21-Nov-20 18:03 33.717783 -117.901716 331 4500ft 87kts
21-Nov-20 18:04 33.739081 -117.915721 331 4500ft 87kts
21-Nov-20 18:04 33.756778 -117.927361 331 4500ft 87kts
21-Nov-20 18:06 33.781644 -117.943720 331 4500ft 87kts
21-Nov-20 18:07 33.802921 -117.957722 331 4500ft 87kts
21-Nov-20 18:07 33.807311 -117.981860 272 4212ft 104kts
21-Nov-20 18:09 33.808861 -118.020879 274 3311ft 89kts
21-Nov-20 18:09 33.810682 -118.044380 276 2627ft 77kts
21-Nov-20 18:11 33.812391 -118.070334 274 2418ft 75kts
21-Nov-20 18:11 33.813634 -118.092596 272 1781ft 81kts
21-Nov-20 18:12 33.813690 -118.119692 274 778ft 85kts
21-Nov-20 18:13 33.813864 -118.144699 270 145ft 67kts
21-Nov-20 18:14 33.813767 -118.157051 251 63ft 11kts
21-Nov-20 18:15 33.813378 -118.157449 191 63ft 0kts
21-Nov-20 18:16 33.813142 -118.157729 259 63ft 9kts
21-Nov-20 18:17 33.812659 -118.158935 183 63ft 0kts

Navigation Log

Ident Type
Flight plan parsing failed, navigation log unavailable